Mount Sterling, Ohio
Current Conditions -  °F | °C
As of 6:15 AM on Monday 22 Dec 2014 (Local Time) from KTZR Reporting Station
Overcast Overcast  
Wind Chill: 28°   Ceiling: 4500
Heat Index: 28°   Visibility: 7mi
Dew Point: 25°   Wind: 3mph
Humidity: 87%   Direction: 100°E
Pressure: 30.06"   Gusts: NA
Location:  39.72°N, 83.27°W
Report Text: KTZR 221115Z AUTO 10003KT 7SM OVC045 M02/M04 A3006 RMK AO2 T10211040
Loading
Personal Weather Stations






























Interactive Weather Map New forecast layout! Learn more

10-Day Weather Forecast

Advertisements
Track Severe Weather on mobile